Main page
METAR-TAF:

METAR-TAF

Airports :

Ibiza Airport

Ibiza, Spain

latitude: 38-52N, longitude: 001-23E, elevation: 7 m

Current weather observation

The report was made 12 minutes ago, at 01:30 UTC
Wind 2 kt from variable directions
Temperature 20°C
Humidity 68%
Pressure 1017 hPa
Visibility 10 km or more
no clouds below 1500 m and no cumulonimbus

METAR: LEIB 220130Z VRB02KT CAVOK 20/14 Q1017 NOSIG

Time: 03:42 (01:42 UTC)

Forecast

The report was made 5 hours and 42 minutes ago, at 20:00 UTC
Forecast valid from 21 at 21 UTC to 22 at 21 UTC
Wind 4 kt from variable directions
Visibility 10 km or more
Few clouds at a height of 1500 ft
Becoming
from 22 at 08 UTC to 22 at 10 UTC
Wind 9 kt from the Southeast

TAF: LEIB 212000Z 2121/2221 VRB04KT 9999 FEW015 TX29/2212Z TN19/2205Z BECMG 2208/2210 13009KT

Weather observations and forecasts of more than 4000 airports (METAR and TAF reports).

The available stations are represented by yellow and red dots on the map.

Hover mouse over dot to see the name of the station.

Then click to see weather observations and forecasts.

To change the map : click on the green buttons with a black cross to zoom in, on the green button with a dash to zoom out, or on the green arrows for adjacent maps.


METAR-TAF: